Time;durP1;ratioP1;P1;durP2;ratioP2;P2;SDS_P1;SDS_P2;PMS_P1;PMS_P2;Temp;Humidity;BMP_temperature;BMP_pressure;BME280_temperature;BME280_humidity;BME280_pressure;Samples;Min_cycle;Max_cycle;Signal;HPM_P1;HPM_P2
2022/10/17 00:01:25;;;;;;;121.83;45.97;;;11.50;99.90;;;;;;5062840;28;20521;-78
2022/10/17 00:03:52;;;;;;;215.93;59.03;;;11.60;99.90;;;;;;5061382;28;20514;-78
2022/10/17 00:06:19;;;;;;;141.97;43.67;;;11.50;99.90;;;;;;5061467;28;20551;-77
2022/10/17 00:08:46;;;;;;;273.40;68.30;;;11.40;99.90;;;;;;5059501;28;20485;-77
2022/10/17 00:11:16;;;;;;;348.13;70.90;;;11.40;99.90;;;;;;5061017;28;20466;-78
2022/10/17 00:13:45;;;;;;;79.73;35.03;;;11.40;99.90;;;;;;5062392;28;20475;-77
2022/10/17 00:16:12;;;;;;;54.07;29.57;;;11.40;99.90;;;;;;5061021;28;20497;-78
2022/10/17 00:18:39;;;;;;;45.47;31.77;;;11.50;99.90;;;;;;5062105;28;21086;-78
2022/10/17 00:21:06;;;;;;;60.83;34.77;;;11.50;99.90;;;;;;5070955;28;20624;-77
2022/10/17 00:23:34;;;;;;;54.10;33.57;;;11.60;99.90;;;;;;5063999;28;20523;-78
2022/10/17 00:26:02;;;;;;;47.07;30.93;;;11.60;99.90;;;;;;5065339;28;20465;-77
2022/10/17 00:28:29;;;;;;;46.23;30.80;;;11.50;99.90;;;;;;5064922;28;20494;-78
2022/10/17 00:30:58;;;;;;;48.77;31.13;;;11.60;99.90;;;;;;5064642;28;20489;-78
2022/10/17 00:33:25;;;;;;;45.60;32.47;;;11.60;99.90;;;;;;5064142;28;20500;-78
2022/10/17 00:36:01;;;;;;;43.47;32.50;;;11.50;99.90;;;;;;5061516;28;20793;-76
2022/10/17 00:38:28;;;;;;;52.33;32.03;;;11.50;99.90;;;;;;5061823;28;20468;-75
2022/10/17 00:40:55;;;;;;;46.07;31.17;;;11.50;99.90;;;;;;5062924;28;20473;-75
2022/10/17 00:43:22;;;;;;;51.83;31.43;;;11.50;99.90;;;;;;5060421;28;20509;-76
2022/10/17 00:45:49;;;;;;;53.60;33.50;;;11.40;99.90;;;;;;5063380;28;20461;-75
2022/10/17 00:48:17;;;;;;;47.67;32.10;;;11.30;99.90;;;;;;5067129;28;20536;-77
2022/10/17 00:50:47;;;;;;;59.17;32.17;;;11.40;99.90;;;;;;5063509;28;20536;-77
2022/10/17 00:53:15;;;;;;;52.93;29.93;;;11.30;99.90;;;;;;5066823;28;20456;-77
2022/10/17 00:55:48;;;;;;;73.83;30.87;;;11.20;99.90;;;;;;5064982;28;20550;-77
2022/10/17 00:58:16;;;;;;;110.17;27.00;;;11.00;99.90;;;;;;5062817;28;20466;-78
2022/10/17 01:00:46;;;;;;;116.77;27.57;;;10.90;99.90;;;;;;5063883;28;20505;-78
2022/10/17 01:03:13;;;;;;;37.43;17.23;;;10.80;99.90;;;;;;5065654;28;20495;-78
2022/10/17 01:05:42;;;;;;;68.00;19.43;;;10.70;99.90;;;;;;5067269;28;20504;-77
2022/10/17 01:08:10;;;;;;;60.83;20.57;;;10.60;99.90;;;;;;5064096;28;20499;-78
2022/10/17 01:10:46;;;;;;;52.43;16.57;;;10.60;99.90;;;;;;5065086;28;20448;-78
2022/10/17 01:13:21;;;;;;;81.10;20.60;;;10.70;99.90;;;;;;5067386;28;20440;-77
2022/10/17 01:15:57;;;;;;;38.83;17.57;;;10.70;99.90;;;;;;5061485;28;20491;-78
2022/10/17 01:18:35;;;;;;;48.90;17.53;;;10.60;99.90;;;;;;5065197;28;20540;-77
2022/10/17 01:21:40;;;;;;;60.03;19.03;;;10.70;99.90;;;;;;5057178;28;20488;-78
2022/10/17 01:24:40;;;;;;;69.63;20.03;;;10.60;99.90;;;;;;5044535;28;20545;-78
2022/10/17 01:27:36;;;;;;;42.90;15.43;;;10.40;99.90;;;;;;5064975;28;20508;-78
2022/10/17 01:30:25;;;;;;;45.63;15.53;;;10.50;99.90;;;;;;5064043;28;20456;-78
2022/10/17 01:32:56;;;;;;;36.20;14.07;;;10.40;99.90;;;;;;5053980;28;20513;-77
2022/10/17 01:35:29;;;;;;;34.93;15.07;;;10.30;99.90;;;;;;5069466;28;20905;-78
2022/10/17 01:38:04;;;;;;;52.40;15.17;;;10.20;99.90;;;;;;5060037;28;20857;-77
2022/10/17 01:40:37;;;;;;;12.83;10.33;;;10.10;99.90;;;;;;5058154;28;20811;-78
2022/10/17 01:43:07;;;;;;;16.33;12.90;;;10.00;99.90;;;;;;5061355;28;20593;-78
2022/10/17 01:45:40;;;;;;;62.73;14.43;;;10.00;99.90;;;;;;5052647;28;20495;-78
2022/10/17 01:48:15;;;;;;;63.10;17.10;;;9.90;99.90;;;;;;5061098;28;20461;-78
2022/10/17 01:50:46;;;;;;;85.70;20.63;;;9.90;99.90;;;;;;5058399;28;20493;-77
2022/10/17 01:53:19;;;;;;;104.80;36.53;;;9.80;99.90;;;;;;5060293;28;21064;-78
2022/10/17 01:55:48;;;;;;;133.10;33.00;;;9.90;99.90;;;;;;5055821;28;20464;-78
2022/10/17 01:58:21;;;;;;;97.23;32.00;;;10.10;99.90;;;;;;5057334;28;20491;-77
2022/10/17 02:00:49;;;;;;;93.77;27.27;;;10.10;99.90;;;;;;5054660;28;20464;-77
2022/10/17 02:03:20;;;;;;;216.20;38.90;;;10.10;99.90;;;;;;5060030;28;20532;-78
2022/10/17 02:05:47;;;;;;;48.20;21.20;;;10.10;99.90;;;;;;5060719;28;20489;-76
2022/10/17 02:08:24;;;;;;;262.47;40.23;;;10.10;99.90;;;;;;5062694;28;20531;-75
2022/10/17 02:10:57;;;;;;;173.30;32.73;;;10.00;99.90;;;;;;5062215;28;20460;-76
2022/10/17 02:13:33;;;;;;;304.83;43.53;;;10.00;99.90;;;;;;5062910;28;20514;-76
2022/10/17 02:16:12;;;;;;;253.47;40.57;;;10.00;99.90;;;;;;5060589;28;21080;-76
2022/10/17 02:19:01;;;;;;;123.07;27.37;;;10.00;99.90;;;;;;5062059;28;20509;-76
2022/10/17 02:21:39;;;;;;;246.93;46.50;;;10.00;99.90;;;;;;5060150;28;20459;-75
2022/10/17 02:24:14;;;;;;;50.83;19.53;;;10.10;99.90;;;;;;5060997;28;20487;-76
2022/10/17 02:26:51;;;;;;;126.20;27.30;;;10.00;99.90;;;;;;5060250;28;20560;-76
2022/10/17 02:29:21;;;;;;;104.20;25.77;;;10.10;99.90;;;;;;5058523;28;21938;-76
2022/10/17 02:31:53;;;;;;;166.10;36.10;;;10.00;99.90;;;;;;5058003;28;20525;-76
2022/10/17 02:34:25;;;;;;;216.20;45.90;;;9.90;99.90;;;;;;5062570;28;20503;-75
2022/10/17 02:36:57;;;;;;;61.60;25.67;;;9.90;99.90;;;;;;5057106;28;20471;-75
2022/10/17 02:39:27;;;;;;;57.77;22.27;;;9.90;99.90;;;;;;5062923;28;20521;-75
2022/10/17 02:41:57;;;;;;;86.57;27.83;;;9.70;99.90;;;;;;5055260;28;20547;-75
2022/10/17 02:44:26;;;;;;;75.27;25.30;;;9.70;99.90;;;;;;5059018;28;20492;-75
2022/10/17 02:46:59;;;;;;;44.83;24.33;;;9.70;99.90;;;;;;5056732;28;20553;-75
2022/10/17 02:49:31;;;;;;;28.87;18.27;;;9.60;99.90;;;;;;5063173;28;20455;-76
2022/10/17 02:52:04;;;;;;;94.83;29.83;;;9.40;99.90;;;;;;5057935;28;20556;-76
2022/10/17 02:54:37;;;;;;;36.97;19.10;;;9.40;99.90;;;;;;5058625;28;20491;-75
2022/10/17 02:57:09;;;;;;;19.87;17.33;;;9.40;99.90;;;;;;5060949;28;20518;-76
2022/10/17 02:59:37;;;;;;;24.80;20.37;;;9.40;99.90;;;;;;5059365;28;20484;-75
2022/10/17 03:02:05;;;;;;;22.17;18.73;;;9.40;99.90;;;;;;5054340;28;21030;-76
2022/10/17 03:04:34;;;;;;;23.57;19.73;;;9.50;99.90;;;;;;5065180;28;20464;-76
2022/10/17 03:07:01;;;;;;;34.80;21.37;;;9.60;99.90;;;;;;5063149;28;21106;-76
2022/10/17 03:09:28;;;;;;;32.97;21.10;;;9.80;99.90;;;;;;5060726;28;20493;-76
2022/10/17 03:11:55;;;;;;;33.53;22.37;;;10.00;99.90;;;;;;5062505;28;20949;-75
2022/10/17 03:14:22;;;;;;;34.43;21.20;;;10.00;99.90;;;;;;5059936;28;20468;-76
2022/10/17 03:16:49;;;;;;;29.87;21.80;;;10.20;99.90;;;;;;5061123;28;20529;-76
2022/10/17 03:19:16;;;;;;;36.20;23.83;;;10.30;99.90;;;;;;5055341;28;20465;-76
2022/10/17 03:21:45;;;;;;;30.93;21.90;;;10.50;99.90;;;;;;5060807;28;21478;-76
2022/10/17 03:24:11;;;;;;;57.23;25.57;;;10.50;99.90;;;;;;5059660;28;20464;-75
2022/10/17 03:26:38;;;;;;;42.03;24.47;;;10.60;99.90;;;;;;5060356;28;20479;-76
2022/10/17 03:29:05;;;;;;;23.57;18.73;;;10.60;99.90;;;;;;5058106;28;21077;-76
2022/10/17 03:31:32;;;;;;;52.40;25.77;;;10.60;99.90;;;;;;5059121;28;20928;-76
2022/10/17 03:34:01;;;;;;;68.97;27.17;;;10.70;99.90;;;;;;5059910;28;20515;-76
2022/10/17 03:36:28;;;;;;;65.80;23.97;;;10.70;99.90;;;;;;5066585;28;20466;-78
2022/10/17 03:38:56;;;;;;;32.73;20.73;;;10.80;99.90;;;;;;5059817;28;20460;-77
2022/10/17 03:41:23;;;;;;;42.03;23.83;;;10.80;99.90;;;;;;5058958;28;20496;-77
2022/10/17 03:43:53;;;;;;;47.23;24.60;;;11.00;99.90;;;;;;5058301;28;20500;-77
2022/10/17 03:46:20;;;;;;;43.87;24.30;;;11.10;99.90;;;;;;5060712;28;20547;-77
2022/10/17 03:48:47;;;;;;;151.77;37.00;;;11.10;99.90;;;;;;5066816;28;20484;-77
2022/10/17 03:51:14;;;;;;;52.27;26.53;;;11.10;99.90;;;;;;5066295;28;20485;-78
2022/10/17 03:53:42;;;;;;;204.90;44.57;;;11.00;99.90;;;;;;5067117;28;20490;-78
2022/10/17 03:56:11;;;;;;;311.50;53.20;;;11.10;99.90;;;;;;5066305;28;20468;-78
2022/10/17 03:58:39;;;;;;;244.20;42.47;;;11.00;99.90;;;;;;5061940;28;20553;-78
2022/10/17 04:01:06;;;;;;;400.27;62.37;;;10.90;99.90;;;;;;5063518;28;21215;-78
2022/10/17 04:03:33;;;;;;;248.87;46.33;;;10.90;99.90;;;;;;5067742;28;20976;-78
2022/10/17 04:06:00;;;;;;;313.67;47.73;;;10.80;99.90;;;;;;5066070;28;20510;-78
2022/10/17 04:08:27;;;;;;;229.23;34.97;;;10.90;99.90;;;;;;5063979;28;20807;-77
2022/10/17 04:10:59;;;;;;;130.57;27.37;;;10.70;99.90;;;;;;5062018;28;20464;-78
2022/10/17 04:13:28;;;;;;;52.43;21.90;;;10.70;99.90;;;;;;5061982;28;20464;-76
2022/10/17 04:15:55;;;;;;;207.47;39.03;;;10.90;99.90;;;;;;5059777;28;20918;-75
2022/10/17 04:18:22;;;;;;;47.80;20.40;;;10.70;99.90;;;;;;5061626;28;20555;-76
2022/10/17 04:20:49;;;;;;;107.90;26.90;;;10.70;99.90;;;;;;5064908;28;20464;-76
2022/10/17 04:23:16;;;;;;;69.07;21.70;;;10.90;99.90;;;;;;5068133;28;20580;-76
2022/10/17 04:25:44;;;;;;;117.43;23.10;;;10.90;99.90;;;;;;5063950;28;20463;-75
2022/10/17 04:28:11;;;;;;;52.97;13.07;;;10.80;99.90;;;;;;5065616;28;21271;-75
2022/10/17 04:30:39;;;;;;;145.13;23.87;;;10.80;99.90;;;;;;5064188;28;20588;-76
2022/10/17 04:33:06;;;;;;;88.17;18.33;;;10.80;99.90;;;;;;5060951;28;20455;-76
2022/10/17 04:35:33;;;;;;;141.87;22.67;;;10.70;99.90;;;;;;5067402;28;20471;-76
2022/10/17 04:38:00;;;;;;;82.70;18.97;;;10.60;99.90;;;;;;5064159;28;20549;-76
2022/10/17 04:40:27;;;;;;;177.70;27.70;;;10.60;99.90;;;;;;5066650;28;20487;-76
2022/10/17 04:42:54;;;;;;;130.30;23.63;;;10.60;99.90;;;;;;5064161;28;20483;-76
2022/10/17 04:45:21;;;;;;;202.83;33.03;;;10.60;99.90;;;;;;5062782;28;20496;-76
2022/10/17 04:47:49;;;;;;;138.17;24.33;;;10.50;99.90;;;;;;5062941;28;20910;-76
2022/10/17 04:50:16;;;;;;;61.80;15.30;;;10.40;99.90;;;;;;5062844;28;20467;-75
2022/10/17 04:52:44;;;;;;;60.50;16.90;;;10.30;99.90;;;;;;5065979;28;20487;-76
2022/10/17 04:55:11;;;;;;;27.97;12.80;;;10.20;99.90;;;;;;5063626;28;20568;-76
2022/10/17 04:57:38;;;;;;;37.10;14.60;;;10.30;99.90;;;;;;5064621;28;20487;-76
2022/10/17 05:00:05;;;;;;;17.60;12.33;;;10.50;99.90;;;;;;5060177;28;20499;-76
2022/10/17 05:02:32;;;;;;;27.03;15.77;;;10.60;99.90;;;;;;5063113;28;20607;-76
2022/10/17 05:05:01;;;;;;;31.63;12.77;;;10.60;99.90;;;;;;5060742;28;20920;-75
2022/10/17 05:07:27;;;;;;;34.23;13.13;;;10.70;99.90;;;;;;5065129;28;21268;-75
2022/10/17 05:09:54;;;;;;;14.97;11.73;;;10.70;99.90;;;;;;5063634;28;20581;-76
2022/10/17 05:12:21;;;;;;;15.00;11.47;;;10.50;99.90;;;;;;5058965;28;20569;-75
2022/10/17 05:14:48;;;;;;;31.00;12.73;;;10.40;99.90;;;;;;5059300;28;21095;-76
2022/10/17 05:17:15;;;;;;;18.63;12.87;;;10.40;99.90;;;;;;5061877;28;20542;-77
2022/10/17 05:19:42;;;;;;;27.30;17.30;;;10.50;99.90;;;;;;5061674;28;20971;-76
2022/10/17 05:22:10;;;;;;;26.87;16.87;;;10.50;99.90;;;;;;5059504;28;20484;-77
2022/10/17 05:24:37;;;;;;;44.20;20.50;;;10.70;99.90;;;;;;5060891;28;20512;-76
2022/10/17 05:27:04;;;;;;;33.93;19.90;;;10.80;99.90;;;;;;5055449;28;20488;-76
2022/10/17 05:29:31;;;;;;;44.33;21.07;;;10.80;99.90;;;;;;5059960;28;20541;-76
2022/10/17 05:31:58;;;;;;;40.77;20.73;;;10.80;99.90;;;;;;5057281;28;20912;-79
2022/10/17 05:34:25;;;;;;;36.70;20.27;;;10.90;99.90;;;;;;5055121;28;20459;-79
2022/10/17 05:36:52;;;;;;;39.50;19.97;;;10.90;99.90;;;;;;5058542;28;20519;-79
2022/10/17 05:39:22;;;;;;;48.87;22.67;;;11.00;99.90;;;;;;5064770;28;20563;-78
2022/10/17 05:41:50;;;;;;;53.20;20.10;;;11.00;99.90;;;;;;5057757;28;21178;-78
2022/10/17 05:44:17;;;;;;;39.80;20.60;;;11.00;99.90;;;;;;5056377;28;21045;-79
2022/10/17 05:46:44;;;;;;;35.60;20.40;;;11.00;99.90;;;;;;5053331;28;20491;-77
2022/10/17 05:49:11;;;;;;;46.07;19.97;;;10.90;99.90;;;;;;5055187;28;20492;-78
2022/10/17 05:51:38;;;;;;;39.77;16.90;;;10.90;99.90;;;;;;5053021;28;20466;-78
2022/10/17 05:54:06;;;;;;;71.33;21.67;;;10.90;99.90;;;;;;5051765;28;20979;-78
2022/10/17 05:56:34;;;;;;;28.30;16.73;;;10.80;99.90;;;;;;5055568;28;20468;-78
2022/10/17 05:59:01;;;;;;;36.37;16.80;;;10.80;99.90;;;;;;5055889;28;20491;-77
2022/10/17 06:01:28;;;;;;;28.20;17.37;;;10.90;99.90;;;;;;5057051;28;20893;-77
2022/10/17 06:03:55;;;;;;;56.53;17.83;;;10.80;99.90;;;;;;5048598;28;20574;-78
2022/10/17 06:06:22;;;;;;;39.57;19.40;;;10.90;99.90;;;;;;5048956;28;20518;-79
2022/10/17 06:08:49;;;;;;;37.60;16.90;;;10.90;99.90;;;;;;5060118;28;20530;-79
2022/10/17 06:11:16;;;;;;;37.80;16.70;;;10.90;99.90;;;;;;5061297;28;20484;-77
2022/10/17 06:13:44;;;;;;;31.10;15.60;;;10.90;99.90;;;;;;5052038;28;21713;-78
2022/10/17 06:16:11;;;;;;;38.87;15.87;;;10.90;99.90;;;;;;5050929;28;20553;-78
2022/10/17 06:18:38;;;;;;;32.03;15.07;;;10.90;99.90;;;;;;5052271;28;20573;-78
2022/10/17 06:21:07;;;;;;;31.53;15.60;;;10.90;99.90;;;;;;5058479;28;21521;-77
2022/10/17 06:23:34;;;;;;;23.80;15.60;;;10.90;99.90;;;;;;5060272;28;20589;-78
2022/10/17 06:26:03;;;;;;;32.43;15.87;;;10.90;99.90;;;;;;5054834;28;20552;-77
2022/10/17 06:28:30;;;;;;;32.80;16.47;;;10.90;99.90;;;;;;5056025;28;20594;-77
2022/10/17 06:30:58;;;;;;;32.10;16.97;;;11.00;99.90;;;;;;5047314;28;20497;-77
2022/10/17 06:33:25;;;;;;;33.40;15.47;;;11.10;99.90;;;;;;5056428;28;20485;-77
2022/10/17 06:35:53;;;;;;;36.40;16.70;;;11.10;99.90;;;;;;5053615;28;20526;-77
2022/10/17 06:38:20;;;;;;;32.40;16.67;;;11.20;99.90;;;;;;5061164;28;20599;-77
2022/10/17 06:40:47;;;;;;;30.67;18.17;;;11.30;99.90;;;;;;5063160;28;20551;-77
2022/10/17 06:43:14;;;;;;;40.87;25.97;;;11.20;99.90;;;;;;5059726;28;21062;-77
2022/10/17 06:45:41;;;;;;;45.60;27.20;;;11.30;99.90;;;;;;5061285;28;20494;-77
2022/10/17 06:48:09;;;;;;;41.10;25.53;;;11.40;99.90;;;;;;5061455;28;20544;-77
2022/10/17 06:50:36;;;;;;;58.83;27.63;;;11.60;99.90;;;;;;5056150;28;20492;-77
2022/10/17 06:53:03;;;;;;;47.53;28.00;;;11.60;99.90;;;;;;5051930;28;20557;-77
2022/10/17 06:55:31;;;;;;;46.50;28.40;;;11.70;99.90;;;;;;5052224;28;20525;-78
2022/10/17 06:57:59;;;;;;;49.77;28.60;;;11.70;99.90;;;;;;5046185;28;20549;-77
2022/10/17 07:00:26;;;;;;;65.50;36.10;;;11.60;99.90;;;;;;5052274;28;20484;-78
2022/10/17 07:02:53;;;;;;;53.30;32.93;;;11.70;99.90;;;;;;5049137;28;20536;-77
2022/10/17 07:05:22;;;;;;;63.23;40.07;;;11.80;99.90;;;;;;5059093;28;20472;-77
2022/10/17 07:07:49;;;;;;;70.50;43.87;;;11.90;99.90;;;;;;5054725;28;21315;-78
2022/10/17 07:10:16;;;;;;;68.73;42.00;;;12.00;99.90;;;;;;5053675;28;20914;-78
2022/10/17 07:12:44;;;;;;;77.90;44.57;;;12.10;99.90;;;;;;5063442;28;20497;-78
2022/10/17 07:15:11;;;;;;;81.47;44.73;;;12.20;99.90;;;;;;5055938;28;21088;-77
2022/10/17 07:17:38;;;;;;;69.17;45.50;;;12.20;99.90;;;;;;5053191;28;21049;-78
2022/10/17 07:20:06;;;;;;;87.17;47.17;;;12.30;99.90;;;;;;5053405;28;20479;-79
2022/10/17 07:22:34;;;;;;;75.80;43.47;;;12.30;99.90;;;;;;5059833;28;20457;-79
2022/10/17 07:25:02;;;;;;;73.90;43.93;;;12.40;99.90;;;;;;5049080;28;20662;-79
2022/10/17 07:27:28;;;;;;;74.43;43.93;;;12.30;99.90;;;;;;5072821;28;20822;-78
2022/10/17 07:29:55;;;;;;;73.37;43.93;;;12.30;99.90;;;;;;5060082;28;20496;-79
2022/10/17 07:32:22;;;;;;;69.63;42.43;;;12.50;99.90;;;;;;5060521;28;21152;-79
2022/10/17 07:34:49;;;;;;;69.00;39.60;;;12.50;99.90;;;;;;5049103;28;20467;-78
2022/10/17 07:37:16;;;;;;;66.67;44.43;;;12.60;99.90;;;;;;5056354;28;20493;-78
2022/10/17 07:39:44;;;;;;;67.07;42.97;;;12.60;99.90;;;;;;5061944;28;20498;-78
2022/10/17 07:42:13;;;;;;;65.07;42.83;;;12.70;99.90;;;;;;5060177;28;20547;-79
2022/10/17 07:44:40;;;;;;;64.13;40.70;;;12.70;99.90;;;;;;5058496;28;20539;-78
2022/10/17 07:47:07;;;;;;;69.30;41.60;;;12.60;99.90;;;;;;5052984;28;20752;-79
2022/10/17 07:49:34;;;;;;;69.33;42.20;;;12.80;99.90;;;;;;5056151;28;20512;-78
2022/10/17 07:52:01;;;;;;;68.80;42.70;;;12.90;99.90;;;;;;5060683;28;20524;-78
2022/10/17 07:54:27;;;;;;;55.90;34.57;;;12.80;99.90;;;;;;5046850;28;20558;-78
2022/10/17 07:56:56;;;;;;;57.17;39.00;;;12.90;99.90;;;;;;5050965;28;20997;-78
2022/10/17 07:59:23;;;;;;;57.57;39.93;;;12.90;99.90;;;;;;5065277;28;20494;-78
2022/10/17 08:01:50;;;;;;;57.00;40.20;;;12.80;99.90;;;;;;5062547;28;20530;-78
2022/10/17 08:04:17;;;;;;;55.93;36.03;;;12.90;99.90;;;;;;5049288;28;20582;-78
2022/10/17 08:06:44;;;;;;;52.80;37.10;;;13.00;99.90;;;;;;5060142;28;20503;-80
2022/10/17 08:09:10;;;;;;;54.60;37.73;;;13.00;99.90;;;;;;5061469;28;20484;-78
2022/10/17 08:11:38;;;;;;;57.97;36.50;;;13.00;99.90;;;;;;5059286;28;21063;-78
2022/10/17 08:14:06;;;;;;;54.37;36.90;;;13.10;99.90;;;;;;5057825;28;20500;-79
2022/10/17 08:16:33;;;;;;;47.63;35.77;;;13.10;99.90;;;;;;5054211;28;20471;-79
2022/10/17 08:19:01;;;;;;;52.13;35.60;;;13.20;99.90;;;;;;5062360;28;20468;-79
2022/10/17 08:21:28;;;;;;;52.30;36.23;;;13.30;99.90;;;;;;5054352;28;20509;-77
2022/10/17 08:23:55;;;;;;;44.37;33.33;;;13.30;99.90;;;;;;5060544;28;20951;-77
2022/10/17 08:26:22;;;;;;;46.13;35.57;;;13.30;99.90;;;;;;5061365;28;20512;-77
2022/10/17 08:28:49;;;;;;;43.23;31.53;;;13.30;99.90;;;;;;5055637;28;20493;-78
2022/10/17 08:31:19;;;;;;;40.60;32.57;;;13.40;99.90;;;;;;5056870;28;21006;-78
2022/10/17 08:33:47;;;;;;;48.63;32.30;;;13.40;99.90;;;;;;5044371;28;21401;-78
2022/10/17 08:36:16;;;;;;;49.40;32.63;;;13.50;99.90;;;;;;5054286;28;21260;-78
2022/10/17 08:38:43;;;;;;;52.30;35.23;;;13.60;99.90;;;;;;5061595;28;20558;-77
2022/10/17 08:41:38;;;;;;;46.13;32.10;;;13.50;99.90;;;;;;5057848;28;20715;-77
2022/10/17 08:44:14;;;;;;;41.10;28.00;;;13.50;99.90;;;;;;5058237;28;21499;-77
2022/10/17 08:46:46;;;;;;;52.90;30.00;;;13.30;99.90;;;;;;5065172;28;20497;-78
2022/10/17 08:49:20;;;;;;;39.70;30.57;;;13.40;99.90;;;;;;5053747;28;20510;-77
2022/10/17 08:51:52;;;;;;;40.07;30.57;;;13.60;99.90;;;;;;5063031;28;20474;-77
2022/10/17 08:54:24;;;;;;;41.33;31.47;;;13.60;99.90;;;;;;5058055;28;20562;-77
2022/10/17 08:56:54;;;;;;;39.87;29.37;;;13.70;99.90;;;;;;5060297;28;20451;-77
2022/10/17 08:59:29;;;;;;;35.87;29.60;;;13.90;99.90;;;;;;5061284;28;20560;-77
2022/10/17 09:02:03;;;;;;;36.20;26.10;;;13.80;99.90;;;;;;5061145;28;20501;-77
2022/10/17 09:04:50;;;;;;;37.67;27.37;;;13.70;99.90;;;;;;5065863;28;20626;-77
2022/10/17 09:07:25;;;;;;;34.40;25.33;;;13.50;99.90;;;;;;5058613;28;20491;-77
2022/10/17 09:10:01;;;;;;;36.43;26.60;;;13.50;99.90;;;;;;5062671;28;20463;-78
2022/10/17 09:12:36;;;;;;;32.20;25.63;;;13.50;99.90;;;;;;5060020;28;20922;-78
2022/10/17 09:15:21;;;;;;;38.33;27.50;;;13.50;99.90;;;;;;5060329;28;20872;-78
2022/10/17 09:17:55;;;;;;;35.67;26.30;;;13.40;99.90;;;;;;5054909;28;20468;-77
2022/10/17 09:20:25;;;;;;;29.90;25.10;;;13.80;99.90;;;;;;5060084;28;20494;-78
2022/10/17 09:22:58;;;;;;;33.73;23.27;;;14.00;99.90;;;;;;5046310;28;20557;-77
2022/10/17 09:25:26;;;;;;;31.60;24.90;;;14.10;99.90;;;;;;5061549;28;20597;-77
2022/10/17 09:27:58;;;;;;;29.80;24.53;;;14.30;99.90;;;;;;5061210;28;21047;-77
2022/10/17 09:30:35;;;;;;;26.23;22.43;;;14.00;99.90;;;;;;5061672;28;20823;-77
2022/10/17 09:33:10;;;;;;;32.53;24.60;;;14.10;99.90;;;;;;5063987;28;20512;-77
2022/10/17 09:35:40;;;;;;;29.20;24.67;;;14.00;99.90;;;;;;5063012;28;20517;-77
2022/10/17 09:38:12;;;;;;;32.63;25.03;;;14.30;99.90;;;;;;5059520;28;20530;-77
2022/10/17 09:40:40;;;;;;;36.10;25.17;;;14.30;99.90;;;;;;5061411;28;20550;-77
2022/10/17 09:43:11;;;;;;;32.07;26.27;;;14.50;99.90;;;;;;5057457;28;20490;-77
2022/10/17 09:45:46;;;;;;;32.37;25.20;;;14.20;99.90;;;;;;5055283;28;20519;-77
2022/10/17 09:48:20;;;;;;;33.20;22.20;;;14.10;99.90;;;;;;5058990;28;20807;-78
2022/10/17 09:50:47;;;;;;;28.33;23.03;;;13.90;99.90;;;;;;5060314;28;20476;-77
2022/10/17 09:53:20;;;;;;;28.27;23.40;;;14.00;99.90;;;;;;5056986;28;21250;-77
2022/10/17 09:55:49;;;;;;;29.83;23.43;;;14.10;99.90;;;;;;5061427;28;20494;-77
2022/10/17 09:58:16;;;;;;;26.37;23.20;;;14.50;99.90;;;;;;5055231;28;20479;-77
2022/10/17 10:00:44;;;;;;;27.57;23.37;;;14.80;99.90;;;;;;5063050;28;20511;-77
2022/10/17 10:03:17;;;;;;;31.90;24.27;;;14.70;99.90;;;;;;5060875;28;20549;-77
2022/10/17 10:06:01;;;;;;;29.57;23.20;;;14.60;99.90;;;;;;5064579;28;20588;-77
2022/10/17 10:08:30;;;;;;;33.87;24.30;;;14.80;99.90;;;;;;5059113;28;21113;-77
2022/10/17 10:11:03;;;;;;;32.27;25.70;;;15.20;99.90;;;;;;5059017;28;20497;-77
2022/10/17 10:13:33;;;;;;;29.60;23.37;;;15.30;99.90;;;;;;5056962;28;20468;-77
2022/10/17 10:16:23;;;;;;;34.33;23.80;;;15.10;99.90;;;;;;5058382;28;20555;-77
2022/10/17 10:18:52;;;;;;;30.07;23.70;;;15.10;99.90;;;;;;5060693;28;20469;-77
2022/10/17 10:21:20;;;;;;;29.67;24.07;;;15.20;99.90;;;;;;5052350;28;20542;-77
2022/10/17 10:24:04;;;;;;;28.30;24.23;;;15.10;99.90;;;;;;5051481;28;22293;-78
2022/10/17 10:26:37;;;;;;;26.43;21.73;;;14.80;99.90;;;;;;5043175;28;20530;-77
2022/10/17 10:29:07;;;;;;;32.93;23.47;;;14.90;99.90;;;;;;5040277;28;20674;-77
2022/10/17 10:31:37;;;;;;;31.50;23.60;;;15.00;99.90;;;;;;5052912;28;20990;-77
2022/10/17 10:34:18;;;;;;;25.17;22.47;;;14.70;99.90;;;;;;5056145;28;20561;-76
2022/10/17 10:36:53;;;;;;;29.70;23.03;;;14.60;99.90;;;;;;5059574;28;20490;-77
2022/10/17 10:39:39;;;;;;;33.10;23.57;;;14.40;99.90;;;;;;5058669;28;20461;-77
2022/10/17 10:42:18;;;;;;;26.57;22.07;;;14.60;99.90;;;;;;5054189;28;20485;-77
2022/10/17 10:44:46;;;;;;;28.17;22.30;;;14.80;99.90;;;;;;5057416;28;20523;-76
2022/10/17 10:47:22;;;;;;;29.27;23.43;;;14.90;99.90;;;;;;5057346;28;20498;-76
2022/10/17 10:49:53;;;;;;;27.30;22.63;;;15.10;99.90;;;;;;5063204;28;20995;-76
2022/10/17 10:52:32;;;;;;;24.23;20.87;;;15.30;99.90;;;;;;5062723;28;20857;-76
2022/10/17 10:55:14;;;;;;;26.73;22.33;;;15.60;99.90;;;;;;5059562;28;20494;-76
2022/10/17 10:57:44;;;;;;;24.17;20.93;;;15.50;99.90;;;;;;5058832;28;20486;-76
2022/10/17 11:00:16;;;;;;;27.93;22.37;;;15.60;99.90;;;;;;5062418;28;21167;-76
2022/10/17 11:02:52;;;;;;;28.50;22.60;;;15.70;99.90;;;;;;5064029;28;21019;-76
2022/10/17 11:05:28;;;;;;;23.90;19.77;;;15.90;99.90;;;;;;5049394;28;21019;-76
2022/10/17 11:08:03;;;;;;;24.03;21.40;;;15.90;99.90;;;;;;5058734;28;20498;-76
2022/10/17 11:10:37;;;;;;;26.27;21.40;;;16.00;99.90;;;;;;5056869;28;20911;-76
2022/10/17 11:13:10;;;;;;;31.00;22.10;;;16.00;99.90;;;;;;5063532;28;20536;-77
2022/10/17 11:15:44;;;;;;;27.80;22.63;;;16.30;99.90;;;;;;5057813;28;20548;-76
2022/10/17 11:18:20;;;;;;;28.20;23.30;;;16.30;99.90;;;;;;5061965;28;21032;-76
2022/10/17 11:20:56;;;;;;;22.57;19.47;;;16.10;99.90;;;;;;5063726;28;20467;-77
2022/10/17 11:23:28;;;;;;;25.20;20.73;;;16.00;99.90;;;;;;5060363;28;20470;-77
2022/10/17 11:26:00;;;;;;;23.33;19.70;;;16.10;99.90;;;;;;5063754;28;20804;-76
2022/10/17 11:28:27;;;;;;;23.63;20.70;;;16.30;99.90;;;;;;5062326;28;20467;-76
2022/10/17 11:31:00;;;;;;;25.80;19.67;;;16.30;99.90;;;;;;5057237;28;20537;-77
2022/10/17 11:33:30;;;;;;;25.90;20.80;;;16.50;99.90;;;;;;5062694;28;20903;-77
2022/10/17 11:36:03;;;;;;;23.40;20.80;;;16.70;99.90;;;;;;5062851;28;20479;-77
2022/10/17 11:38:40;;;;;;;23.70;19.90;;;17.00;99.90;;;;;;5063976;28;20502;-77
2022/10/17 11:41:11;;;;;;;22.00;19.00;;;17.00;99.90;;;;;;5059118;28;20469;-77
2022/10/17 11:43:43;;;;;;;23.70;20.13;;;17.20;99.90;;;;;;5063501;28;20498;-77
2022/10/17 11:46:17;;;;;;;21.00;18.53;;;17.10;99.90;;;;;;5058663;28;20514;-77
2022/10/17 11:48:53;;;;;;;22.70;19.83;;;17.10;99.90;;;;;;5063030;28;20444;-76
2022/10/17 11:51:21;;;;;;;21.97;19.43;;;17.30;99.90;;;;;;5061280;28;20596;-76
2022/10/17 11:53:54;;;;;;;23.50;19.10;;;17.50;99.90;;;;;;5062676;28;20464;-77
2022/10/17 11:56:29;;;;;;;26.57;20.67;;;17.50;99.90;;;;;;5059843;28;20799;-77
2022/10/17 11:59:05;;;;;;;25.40;21.20;;;17.60;99.90;;;;;;5063585;28;20496;-77
2022/10/17 12:01:38;;;;;;;21.93;18.83;;;17.80;99.90;;;;;;5050741;28;20502;-77
2022/10/17 12:04:23;;;;;;;21.97;18.50;;;17.90;99.90;;;;;;5062173;28;20480;-76
2022/10/17 12:07:05;;;;;;;21.43;19.30;;;17.90;99.90;;;;;;5052990;28;20464;-76
2022/10/17 12:09:41;;;;;;;21.80;18.40;;;17.90;99.90;;;;;;5054560;28;20446;-76
2022/10/17 12:12:08;;;;;;;20.73;18.60;;;17.80;99.90;;;;;;5062444;28;20570;-77
2022/10/17 12:14:38;;;;;;;21.23;17.90;;;17.70;99.90;;;;;;5067919;28;20918;-76
2022/10/17 12:17:20;;;;;;;22.17;19.37;;;17.70;99.90;;;;;;5059136;28;20459;-77
2022/10/17 12:19:47;;;;;;;20.00;17.90;;;17.50;99.90;;;;;;5065851;28;20808;-76
2022/10/17 12:22:22;;;;;;;21.23;18.40;;;17.70;99.90;;;;;;5057076;28;20460;-77
2022/10/17 12:25:00;;;;;;;21.20;18.20;;;17.70;99.90;;;;;;5062622;28;20487;-77
2022/10/17 12:27:38;;;;;;;26.93;18.87;;;17.60;99.90;;;;;;5054917;28;20471;-77
2022/10/17 12:30:15;;;;;;;21.17;18.67;;;17.70;99.90;;;;;;5066523;28;20799;-77
2022/10/17 12:32:55;;;;;;;21.23;19.03;;;17.70;99.90;;;;;;5065546;28;20913;-77
2022/10/17 12:35:25;;;;;;;19.80;17.73;;;17.70;99.90;;;;;;5061217;28;20463;-77
2022/10/17 12:38:19;;;;;;;20.43;17.40;;;17.80;99.90;;;;;;5067231;28;20451;-77
2022/10/17 12:40:54;;;;;;;20.67;18.50;;;17.90;99.90;;;;;;5062402;28;21010;-77
2022/10/17 12:43:49;;;;;;;20.10;17.37;;;17.90;99.90;;;;;;5063580;28;20459;-77